Eikamaru No.2 — JD3056 — position and weather

sailwx.info

Track history (hours):
 
Tides and Currents Weather Stations Pressure Air Temp Water Temp Dewpoint Dewpoint Depression Visibility Wind Speed Wind Dir Waves Ship Positions

Eikamaru No.2

Last reported at 2015-Jan-22 11:06 UTC. Time now 2015-Jan-26 06:26 UTC.
Position N 34°58' E 139°27'.

Length 60 m; draft 3.3 m.

Type: Tanker. MMSI: 431001342.

Date/timePositionNaut miles runAvg speedWind from/ knotsBaromVisibWave heightAir tempDewpointWater temp
2015-Jan-22 11:06N 34°58' E 139°27'611.9
2015-Jan-22 10:33N 35°02' E 139°33'1211.7
2015-Jan-22 09:33N 35°09' E 139°44'1010.4
2015-Jan-22 08:33N 35°20' E 139°42'1010.4
2015-Jan-22 07:33N 35°28' E 139°49'6 1.1
2015-Jan-22 02:23N 35°31' E 139°56'1011.6
2015-Jan-22 01:33N 35°25' E 139°47'1010.0
2015-Jan-22 00:33N 35°15' E 139°47'1111.3
2015-Jan-21 23:33N 35°04' E 139°44'811.5
2015-Jan-21 22:49N 34°59' E 139°35'111.2
2015-Jan-21 22:46N 34°58' E 139°35'311.1
2015-Jan-21 22:32N 34°57' E 139°32'  
2015-Jan-18 11:32N 34°56' E 140°02'1210.9
2015-Jan-18 10:28N 34°53' E 139°49'910.3
2015-Jan-18 09:33N 35°01' E 139°44'1111.3
2015-Jan-18 08:33N 35°12' E 139°47'1111.5
2015-Jan-18 07:34N 35°23' E 139°42'1111.1
2015-Jan-18 06:33N 35°30' E 139°53'2 0.4
2015-Jan-18 01:19N 35°31' E 139°56'912.0
2015-Jan-18 00:33N 35°25' E 139°47'1110.6
2015-Jan-17 23:33N 35°14' E 139°47'1111.4
2015-Jan-17 22:33N 35°04' E 139°42'1312.2
2015-Jan-17 21:29N 34°56' E 139°29'1411.2
2015-Jan-17 20:14N 34°47' E 139°16'20 0.5
2015-Jan-16 04:33N 35°01' E 139°33'1111.2
2015-Jan-16 03:33N 35°08' E 139°43'1010.1
2015-Jan-16 02:34N 35°18' E 139°44'10 9.6
2015-Jan-16 01:34N 35°27' E 139°48'6 5.3
2015-Jan-16 00:26N 35°29' E 139°55'0 0.0
2015-Jan-15 18:12N 35°29' E 139°55'0 0.0
2015-Jan-15 17:33N 35°29' E 139°55'0 0.0
2015-Jan-15 11:14N 35°29' E 139°55'0 0.0
2015-Jan-15 06:33N 35°29' E 139°55'0 0.0
2015-Jan-15 05:32N 35°29' E 139°55'0 0.0
2015-Jan-15 04:33N 35°29' E 139°55'4 4.3
2015-Jan-15 03:32N 35°28' E 140°00'4 0.3
2015-Jan-14 15:30N 35°29' E 139°56'0 0.0
2015-Jan-14 14:07N 35°29' E 139°56'0 0.0
2015-Jan-14 13:29N 35°29' E 139°56'0 0.0
2015-Jan-14 11:26N 35°29' E 139°56'0 0.0
2015-Jan-14 10:22N 35°29' E 139°56'0 0.0
2015-Jan-14 09:32N 35°29' E 139°56'0 0.0
2015-Jan-14 08:24N 35°29' E 139°56'5 0.5
2015-Jan-13 21:20N 35°33' E 140°00'4 2.1
2015-Jan-13 19:19N 35°31' E 139°56'912.0
2015-Jan-13 18:34N 35°25' E 139°47'1110.7
2015-Jan-13 17:33N 35°14' E 139°47'1211.6
2015-Jan-13 16:34N 35°03' E 139°42'1312.2
2015-Jan-13 15:31N 34°56' E 139°30'  
Track history (hours):
 
Tides and Currents Weather Stations Pressure Air Temp Water Temp Dewpoint Dewpoint Depression Visibility Wind Speed Wind Dir Waves Ship Positions

Eikamaru No.2

Last reported at 2015-Jan-22 11:06 UTC. Time now 2015-Jan-26 06:26 UTC.
Position N 34°58' E 139°27'.

Length 60 m; draft 3.3 m.

Type: Tanker. MMSI: 431001342.

Date/timePositionNaut miles runAvg speedWind from/ knotsBaromVisibWave heightAir tempDewpointWater temp
2015-Jan-22 11:06N 34°58' E 139°27'611.9
2015-Jan-22 10:33N 35°02' E 139°33'1211.7
2015-Jan-22 09:33N 35°09' E 139°44'1010.4
2015-Jan-22 08:33N 35°20' E 139°42'1010.4
2015-Jan-22 07:33N 35°28' E 139°49'6 1.1
2015-Jan-22 02:23N 35°31' E 139°56'1011.6
2015-Jan-22 01:33N 35°25' E 139°47'1010.0
2015-Jan-22 00:33N 35°15' E 139°47'1111.3
2015-Jan-21 23:33N 35°04' E 139°44'811.5
2015-Jan-21 22:49N 34°59' E 139°35'111.2
2015-Jan-21 22:46N 34°58' E 139°35'311.1
2015-Jan-21 22:32N 34°57' E 139°32'  
2015-Jan-18 11:32N 34°56' E 140°02'1210.9
2015-Jan-18 10:28N 34°53' E 139°49'910.3
2015-Jan-18 09:33N 35°01' E 139°44'1111.3
2015-Jan-18 08:33N 35°12' E 139°47'1111.5
2015-Jan-18 07:34N 35°23' E 139°42'1111.1
2015-Jan-18 06:33N 35°30' E 139°53'2 0.4
2015-Jan-18 01:19N 35°31' E 139°56'912.0
2015-Jan-18 00:33N 35°25' E 139°47'1110.6
2015-Jan-17 23:33N 35°14' E 139°47'1111.4
2015-Jan-17 22:33N 35°04' E 139°42'1312.2
2015-Jan-17 21:29N 34°56' E 139°29'1411.2
2015-Jan-17 20:14N 34°47' E 139°16'20 0.5
2015-Jan-16 04:33N 35°01' E 139°33'1111.2
2015-Jan-16 03:33N 35°08' E 139°43'1010.1
2015-Jan-16 02:34N 35°18' E 139°44'10 9.6
2015-Jan-16 01:34N 35°27' E 139°48'6 5.3
2015-Jan-16 00:26N 35°29' E 139°55'0 0.0
2015-Jan-15 18:12N 35°29' E 139°55'0 0.0
2015-Jan-15 17:33N 35°29' E 139°55'0 0.0
2015-Jan-15 11:14N 35°29' E 139°55'0 0.0
2015-Jan-15 06:33N 35°29' E 139°55'0 0.0
2015-Jan-15 05:32N 35°29' E 139°55'0 0.0
2015-Jan-15 04:33N 35°29' E 139°55'4 4.3
2015-Jan-15 03:32N 35°28' E 140°00'4 0.3
2015-Jan-14 15:30N 35°29' E 139°56'0 0.0
2015-Jan-14 14:07N 35°29' E 139°56'0 0.0
2015-Jan-14 13:29N 35°29' E 139°56'0 0.0
2015-Jan-14 11:26N 35°29' E 139°56'0 0.0
2015-Jan-14 10:22N 35°29' E 139°56'0 0.0
2015-Jan-14 09:32N 35°29' E 139°56'0 0.0
2015-Jan-14 08:24N 35°29' E 139°56'5 0.5
2015-Jan-13 21:20N 35°33' E 140°00'4 2.1
2015-Jan-13 19:19N 35°31' E 139°56'912.0
2015-Jan-13 18:34N 35°25' E 139°47'1110.7
2015-Jan-13 17:33N 35°14' E 139°47'1211.6
2015-Jan-13 16:34N 35°03' E 139°42'1312.2
2015-Jan-13 15:31N 34°56' E 139°30'  

Dump ship's entire track history